sensor_id;sensor_type;location;lat;lon;timestamp;pressure;altitude;pressure_sealevel;temperature;humidity
64298;BME280;50639;53.270;7.956;2023-05-20T00:00:08;102718.69;;;12.61;61.99
64298;BME280;50639;53.270;7.956;2023-05-20T00:02:37;102720.06;;;12.65;61.88
64298;BME280;50639;53.270;7.956;2023-05-20T00:05:02;102716.22;;;12.68;61.64
64298;BME280;50639;53.270;7.956;2023-05-20T00:07:28;102708.69;;;12.71;61.71
64298;BME280;50639;53.270;7.956;2023-05-20T00:09:53;102701.00;;;12.76;61.45
64298;BME280;50639;53.270;7.956;2023-05-20T00:12:19;102711.13;;;12.82;61.20
64298;BME280;50639;53.270;7.956;2023-05-20T00:14:45;102710.44;;;12.80;61.50
64298;BME280;50639;53.270;7.956;2023-05-20T00:17:10;102706.59;;;12.83;61.27
64298;BME280;50639;53.270;7.956;2023-05-20T00:19:36;102709.31;;;12.91;60.94
64298;BME280;50639;53.270;7.956;2023-05-20T00:22:01;102706.50;;;12.93;60.87
64298;BME280;50639;53.270;7.956;2023-05-20T00:24:27;102700.41;;;12.82;61.30
64298;BME280;50639;53.270;7.956;2023-05-20T00:26:52;102703.59;;;12.86;60.82
64298;BME280;50639;53.270;7.956;2023-05-20T00:29:21;102701.91;;;12.85;61.13
64298;BME280;50639;53.270;7.956;2023-05-20T00:31:47;102707.63;;;12.90;60.70
64298;BME280;50639;53.270;7.956;2023-05-20T00:34:12;102705.97;;;12.89;60.82
64298;BME280;50639;53.270;7.956;2023-05-20T00:36:38;102700.06;;;12.86;61.04
64298;BME280;50639;53.270;7.956;2023-05-20T00:39:04;102695.53;;;12.86;60.96
64298;BME280;50639;53.270;7.956;2023-05-20T00:41:32;102697.53;;;12.84;61.25
64298;BME280;50639;53.270;7.956;2023-05-20T00:43:58;102699.72;;;12.80;61.44
64298;BME280;50639;53.270;7.956;2023-05-20T00:46:25;102694.34;;;12.80;61.26
64298;BME280;50639;53.270;7.956;2023-05-20T00:48:51;102694.03;;;12.84;61.20
64298;BME280;50639;53.270;7.956;2023-05-20T00:51:18;102704.13;;;12.90;60.85
64298;BME280;50639;53.270;7.956;2023-05-20T00:53:45;102700.59;;;12.89;60.85
64298;BME280;50639;53.270;7.956;2023-05-20T00:56:13;102700.41;;;12.82;61.30
64298;BME280;50639;53.270;7.956;2023-05-20T00:58:38;102703.72;;;12.85;61.30
64298;BME280;50639;53.270;7.956;2023-05-20T01:01:04;102701.06;;;12.85;61.36
64298;BME280;50639;53.270;7.956;2023-05-20T01:03:31;102700.41;;;12.82;61.03
64298;BME280;50639;53.270;7.956;2023-05-20T01:05:56;102704.75;;;12.84;61.16
64298;BME280;50639;53.270;7.956;2023-05-20T01:08:23;102705.81;;;12.91;61.13
64298;BME280;50639;53.270;7.956;2023-05-20T01:10:55;102699.22;;;12.85;61.35
64298;BME280;50639;53.270;7.956;2023-05-20T01:13:28;102699.59;;;12.90;60.97
64298;BME280;50639;53.270;7.956;2023-05-20T01:15:56;102699.75;;;12.89;61.01
64298;BME280;50639;53.270;7.956;2023-05-20T01:18:23;102689.66;;;12.82;61.37
64298;BME280;50639;53.270;7.956;2023-05-20T01:20:57;102690.66;;;12.81;61.02
64298;BME280;50639;53.270;7.956;2023-05-20T01:23:52;102689.28;;;12.77;60.70
64298;BME280;50639;53.270;7.956;2023-05-20T01:26:18;102686.59;;;12.77;61.20
64298;BME280;50639;53.270;7.956;2023-05-20T01:28:44;102690.66;;;12.81;60.83
64298;BME280;50639;53.270;7.956;2023-05-20T01:31:14;102690.50;;;12.83;60.63
64298;BME280;50639;53.270;7.956;2023-05-20T01:33:43;102697.03;;;12.80;60.52
64298;BME280;50639;53.270;7.956;2023-05-20T01:36:10;102687.59;;;12.76;60.42
64298;BME280;50639;53.270;7.956;2023-05-20T01:38:38;102685.59;;;12.78;60.11
64298;BME280;50639;53.270;7.956;2023-05-20T01:41:05;102689.28;;;12.77;59.99
64298;BME280;50639;53.270;7.956;2023-05-20T01:43:31;102685.41;;;12.72;60.39
64298;BME280;50639;53.270;7.956;2023-05-20T01:45:57;102686.94;;;12.74;60.25
64298;BME280;50639;53.270;7.956;2023-05-20T01:48:23;102691.63;;;12.72;60.06
64298;BME280;50639;53.270;7.956;2023-05-20T01:50:48;102687.78;;;12.75;59.95
64298;BME280;50639;53.270;7.956;2023-05-20T01:53:15;102689.44;;;12.76;59.60
64298;BME280;50639;53.270;7.956;2023-05-20T01:55:40;102693.16;;;12.75;59.48
64298;BME280;50639;53.270;7.956;2023-05-20T01:58:09;102691.47;;;12.74;59.40
64298;BME280;50639;53.270;7.956;2023-05-20T02:00:35;102683.56;;;12.72;58.69
64298;BME280;50639;53.270;7.956;2023-05-20T02:03:01;102690.94;;;12.70;58.27
64298;BME280;50639;53.270;7.956;2023-05-20T02:05:28;102685.53;;;12.62;58.08
64298;BME280;50639;53.270;7.956;2023-05-20T02:07:53;102684.53;;;12.63;58.17
64298;BME280;50639;53.270;7.956;2023-05-20T02:10:19;102687.47;;;12.52;57.81
64298;BME280;50639;53.270;7.956;2023-05-20T02:12:45;102690.78;;;12.46;58.14
64298;BME280;50639;53.270;7.956;2023-05-20T02:15:12;102694.59;;;12.43;58.51
64298;BME280;50639;53.270;7.956;2023-05-20T02:17:39;102693.06;;;12.41;58.24
64298;BME280;50639;53.270;7.956;2023-05-20T02:20:10;102695.09;;;12.39;58.30
64298;BME280;50639;53.270;7.956;2023-05-20T02:22:36;102695.31;;;12.28;58.36
64298;BME280;50639;53.270;7.956;2023-05-20T02:25:02;102696.63;;;12.24;58.20
64298;BME280;50639;53.270;7.956;2023-05-20T02:27:28;102696.88;;;12.13;57.96
64298;BME280;50639;53.270;7.956;2023-05-20T02:29:53;102694.66;;;12.08;58.24
64298;BME280;50639;53.270;7.956;2023-05-20T02:32:19;102695.44;;;12.00;57.88
64298;BME280;50639;53.270;7.956;2023-05-20T02:34:45;102692.13;;;11.89;58.49
64298;BME280;50639;53.270;7.956;2023-05-20T02:37:11;102695.22;;;11.76;58.32
64298;BME280;50639;53.270;7.956;2023-05-20T02:39:36;102703.41;;;11.65;58.54
64298;BME280;50639;53.270;7.956;2023-05-20T02:42:02;102697.00;;;11.58;58.82
64298;BME280;50639;53.270;7.956;2023-05-20T02:44:29;102695.06;;;11.50;58.52
64298;BME280;50639;53.270;7.956;2023-05-20T02:46:55;102684.72;;;11.38;58.52
64298;BME280;50639;53.270;7.956;2023-05-20T02:49:21;102691.53;;;11.32;58.69
64298;BME280;50639;53.270;7.956;2023-05-20T02:51:47;102690.72;;;11.22;58.82
64298;BME280;50639;53.270;7.956;2023-05-20T02:54:13;102688.09;;;11.12;59.49
64298;BME280;50639;53.270;7.956;2023-05-20T02:56:39;102693.44;;;11.12;59.31
64298;BME280;50639;53.270;7.956;2023-05-20T02:59:05;102686.03;;;11.06;59.63
64298;BME280;50639;53.270;7.956;2023-05-20T03:01:32;102685.91;;;10.98;59.73
64298;BME280;50639;53.270;7.956;2023-05-20T03:04:01;102685.34;;;10.94;59.35
64298;BME280;50639;53.270;7.956;2023-05-20T03:06:27;102690.31;;;10.89;60.01
64298;BME280;50639;53.270;7.956;2023-05-20T03:08:54;102690.03;;;10.83;59.40
64298;BME280;50639;53.270;7.956;2023-05-20T03:11:21;102686.69;;;10.81;59.59
64298;BME280;50639;53.270;7.956;2023-05-20T03:13:47;102690.91;;;10.74;59.49
64298;BME280;50639;53.270;7.956;2023-05-20T03:16:16;102694.88;;;10.70;59.75
64298;BME280;50639;53.270;7.956;2023-05-20T03:18:43;102694.47;;;10.65;59.94
64298;BME280;50639;53.270;7.956;2023-05-20T03:21:08;102696.72;;;10.60;59.79
64298;BME280;50639;53.270;7.956;2023-05-20T03:23:34;102696.88;;;10.58;59.65
64298;BME280;50639;53.270;7.956;2023-05-20T03:26:00;102695.78;;;10.51;59.73
64298;BME280;50639;53.270;7.956;2023-05-20T03:28:27;102696.88;;;10.48;59.84
64298;BME280;50639;53.270;7.956;2023-05-20T03:30:53;102698.31;;;10.52;58.86
64298;BME280;50639;53.270;7.956;2023-05-20T03:33:19;102698.84;;;10.56;59.12
64298;BME280;50639;53.270;7.956;2023-05-20T03:35:46;102695.31;;;10.55;59.41
64298;BME280;50639;53.270;7.956;2023-05-20T03:38:14;102699.00;;;10.54;59.33
64298;BME280;50639;53.270;7.956;2023-05-20T03:40:40;102694.34;;;10.56;59.63
64298;BME280;50639;53.270;7.956;2023-05-20T03:43:08;102696.03;;;10.57;59.90
64298;BME280;50639;53.270;7.956;2023-05-20T03:45:33;102694.50;;;10.55;59.03
64298;BME280;50639;53.270;7.956;2023-05-20T03:48:03;102699.41;;;10.60;59.43
64298;BME280;50639;53.270;7.956;2023-05-20T03:50:30;102702.91;;;10.60;59.13
64298;BME280;50639;53.270;7.956;2023-05-20T03:52:56;102703.19;;;10.67;59.60
64298;BME280;50639;53.270;7.956;2023-05-20T03:55:25;102704.59;;;10.61;59.91
64298;BME280;50639;53.270;7.956;2023-05-20T03:57:54;102703.75;;;10.61;60.12
64298;BME280;50639;53.270;7.956;2023-05-20T04:00:20;102700.38;;;10.59;59.80
64298;BME280;50639;53.270;7.956;2023-05-20T04:02:47;102699.56;;;10.48;60.02
64298;BME280;50639;53.270;7.956;2023-05-20T04:05:15;102694.47;;;10.65;60.06
64298;BME280;50639;53.270;7.956;2023-05-20T04:07:41;102701.09;;;10.61;60.17
64298;BME280;50639;53.270;7.956;2023-05-20T04:10:08;102688.44;;;10.63;59.76
64298;BME280;50639;53.270;7.956;2023-05-20T04:12:33;102690.13;;;10.64;59.32
64298;BME280;50639;53.270;7.956;2023-05-20T04:15:02;102700.09;;;10.71;59.81
64298;BME280;50639;53.270;7.956;2023-05-20T04:17:33;102704.97;;;10.76;59.95
64298;BME280;50639;53.270;7.956;2023-05-20T04:20:04;102698.66;;;10.77;59.80
64298;BME280;50639;53.270;7.956;2023-05-20T04:22:32;102699.97;;;10.63;60.43
64298;BME280;50639;53.270;7.956;2023-05-20T04:24:58;102696.13;;;10.75;60.21
64298;BME280;50639;53.270;7.956;2023-05-20T04:27:24;102700.22;;;10.70;60.03
64298;BME280;50639;53.270;7.956;2023-05-20T04:29:50;102699.78;;;10.74;60.27
64298;BME280;50639;53.270;7.956;2023-05-20T04:32:18;102710.91;;;10.70;59.58
64298;BME280;50639;53.270;7.956;2023-05-20T04:34:45;102694.44;;;10.74;59.74
64298;BME280;50639;53.270;7.956;2023-05-20T04:37:12;102702.16;;;10.77;60.42
64298;BME280;50639;53.270;7.956;2023-05-20T04:39:39;102701.78;;;10.72;60.31
64298;BME280;50639;53.270;7.956;2023-05-20T04:42:08;102700.50;;;10.67;60.16
64298;BME280;50639;53.270;7.956;2023-05-20T04:44:34;102696.72;;;10.69;59.92
64298;BME280;50639;53.270;7.956;2023-05-20T04:46:59;102709.38;;;10.67;60.40
64298;BME280;50639;53.270;7.956;2023-05-20T04:49:25;102704.47;;;10.63;60.45
64298;BME280;50639;53.270;7.956;2023-05-20T04:51:51;102702.22;;;10.58;60.35
64298;BME280;50639;53.270;7.956;2023-05-20T04:54:17;102706.16;;;10.64;60.72
64298;BME280;50639;53.270;7.956;2023-05-20T04:56:44;102702.22;;;10.58;59.95
64298;BME280;50639;53.270;7.956;2023-05-20T04:59:11;102706.31;;;10.62;60.38
64298;BME280;50639;53.270;7.956;2023-05-20T05:01:38;102706.44;;;10.61;60.62
64298;BME280;50639;53.270;7.956;2023-05-20T05:04:06;102703.63;;;10.62;61.07
64298;BME280;50639;53.270;7.956;2023-05-20T05:06:31;102708.41;;;10.59;61.49
64298;BME280;50639;53.270;7.956;2023-05-20T05:08:57;102711.34;;;10.65;60.57
64298;BME280;50639;53.270;7.956;2023-05-20T05:11:24;102705.84;;;10.67;60.94
64298;BME280;50639;53.270;7.956;2023-05-20T05:13:50;102716.25;;;10.70;60.70
64298;BME280;50639;53.270;7.956;2023-05-20T05:16:17;102706.28;;;10.72;60.91
64298;BME280;50639;53.270;7.956;2023-05-20T05:18:43;102708.63;;;10.75;61.54
64298;BME280;50639;53.270;7.956;2023-05-20T05:21:08;102705.78;;;10.86;60.69
64298;BME280;50639;53.270;7.956;2023-05-20T05:23:35;102711.16;;;10.86;61.07
64298;BME280;50639;53.270;7.956;2023-05-20T05:26:02;102707.59;;;10.95;61.12
64298;BME280;50639;53.270;7.956;2023-05-20T05:28:27;102713.03;;;11.03;61.52
64298;BME280;50639;53.270;7.956;2023-05-20T05:30:53;102708.09;;;11.08;61.52
64298;BME280;50639;53.270;7.956;2023-05-20T05:33:20;102708.22;;;11.16;60.94
64298;BME280;50639;53.270;7.956;2023-05-20T05:35:45;102707.75;;;11.21;61.49
64298;BME280;50639;53.270;7.956;2023-05-20T05:38:11;102707.94;;;11.37;61.42
64298;BME280;50639;53.270;7.956;2023-05-20T05:40:36;102706.69;;;11.41;61.29
64298;BME280;50639;53.270;7.956;2023-05-20T05:43:02;102704.78;;;11.51;61.45
64298;BME280;50639;53.270;7.956;2023-05-20T05:45:28;102709.97;;;11.53;60.78
64298;BME280;50639;53.270;7.956;2023-05-20T05:47:54;102705.81;;;11.68;61.27
64298;BME280;50639;53.270;7.956;2023-05-20T05:50:20;102705.59;;;11.79;60.54
64298;BME280;50639;53.270;7.956;2023-05-20T05:52:46;102705.44;;;11.81;60.25
64298;BME280;50639;53.270;7.956;2023-05-20T05:55:11;102704.16;;;11.85;59.84
64298;BME280;50639;53.270;7.956;2023-05-20T05:57:37;102703.03;;;11.87;60.08
64298;BME280;50639;53.270;7.956;2023-05-20T06:00:04;102703.94;;;11.96;60.31
64298;BME280;50639;53.270;7.956;2023-05-20T06:02:43;102708.81;;;12.00;59.84
64298;BME280;50639;53.270;7.956;2023-05-20T06:05:09;102702.19;;;12.04;60.05
64298;BME280;50639;53.270;7.956;2023-05-20T06:07:34;102699.94;;;12.18;59.70
64298;BME280;50639;53.270;7.956;2023-05-20T06:10:00;102704.50;;;12.25;59.86
64298;BME280;50639;53.270;7.956;2023-05-20T06:12:26;102706.56;;;12.31;59.08
64298;BME280;50639;53.270;7.956;2023-05-20T06:14:52;102702.44;;;12.37;59.06
64298;BME280;50639;53.270;7.956;2023-05-20T06:17:17;102705.25;;;12.35;59.95
64298;BME280;50639;53.270;7.956;2023-05-20T06:19:43;102703.63;;;12.42;59.42
64298;BME280;50639;53.270;7.956;2023-05-20T06:22:08;102714.22;;;12.44;59.80
64298;BME280;50639;53.270;7.956;2023-05-20T06:24:34;102710.78;;;12.60;60.14
64298;BME280;50639;53.270;7.956;2023-05-20T06:27:00;102713.75;;;12.74;59.59
64298;BME280;50639;53.270;7.956;2023-05-20T06:29:28;102708.00;;;12.69;59.08
64298;BME280;50639;53.270;7.956;2023-05-20T06:31:54;102701.06;;;12.85;59.16
64298;BME280;50639;53.270;7.956;2023-05-20T06:34:21;102706.75;;;12.81;59.27
64298;BME280;50639;53.270;7.956;2023-05-20T06:36:48;102705.13;;;12.89;58.88
64298;BME280;50639;53.270;7.956;2023-05-20T06:39:13;102708.53;;;12.99;58.87
64298;BME280;50639;53.270;7.956;2023-05-20T06:41:41;102711.72;;;13.02;59.32
64298;BME280;50639;53.270;7.956;2023-05-20T06:44:09;102707.72;;;13.06;58.24
64298;BME280;50639;53.270;7.956;2023-05-20T06:46:53;102709.63;;;13.14;58.43
64298;BME280;50639;53.270;7.956;2023-05-20T06:49:21;102700.59;;;13.23;59.06
64298;BME280;50639;53.270;7.956;2023-05-20T06:51:48;102704.47;;;13.29;58.49
64298;BME280;50639;53.270;7.956;2023-05-20T06:54:13;102702.66;;;13.37;57.79
64298;BME280;50639;53.270;7.956;2023-05-20T06:56:39;102703.03;;;13.42;58.71
64298;BME280;50639;53.270;7.956;2023-05-20T06:59:05;102698.84;;;13.48;58.76
64298;BME280;50639;53.270;7.956;2023-05-20T07:01:32;102689.63;;;13.50;58.76
64298;BME280;50639;53.270;7.956;2023-05-20T07:03:58;102689.50;;;13.60;58.81
64298;BME280;50639;53.270;7.956;2023-05-20T07:06:23;102681.63;;;13.75;57.89
64298;BME280;50639;53.270;7.956;2023-05-20T07:08:49;102684.16;;;13.84;58.09
64298;BME280;50639;53.270;7.956;2023-05-20T07:11:15;102677.09;;;13.91;57.58
64298;BME280;50639;53.270;7.956;2023-05-20T07:13:41;102674.56;;;13.90;57.50
64298;BME280;50639;53.270;7.956;2023-05-20T07:16:06;102674.41;;;13.91;57.82
64298;BME280;50639;53.270;7.956;2023-05-20T07:18:33;102676.44;;;14.06;57.78
64298;BME280;50639;53.270;7.956;2023-05-20T07:20:59;102674.09;;;14.03;57.52
64298;BME280;50639;53.270;7.956;2023-05-20T07:23:45;102668.56;;;14.12;57.72
64298;BME280;50639;53.270;7.956;2023-05-20T07:26:11;102666.38;;;14.24;57.66
64298;BME280;50639;53.270;7.956;2023-05-20T07:28:37;102666.69;;;14.29;58.03
64298;BME280;50639;53.270;7.956;2023-05-20T07:31:04;102664.53;;;14.41;56.68
64298;BME280;50639;53.270;7.956;2023-05-20T07:33:31;102664.50;;;14.49;56.45
64298;BME280;50639;53.270;7.956;2023-05-20T07:35:58;102659.44;;;14.54;57.05
64298;BME280;50639;53.270;7.956;2023-05-20T07:38:23;102652.03;;;14.64;55.82
64298;BME280;50639;53.270;7.956;2023-05-20T07:40:58;102658.16;;;14.42;56.49
64298;BME280;50639;53.270;7.956;2023-05-20T07:43:24;102655.09;;;14.37;56.46
64298;BME280;50639;53.270;7.956;2023-05-20T07:45:51;102646.00;;;14.54;55.99
64298;BME280;50639;53.270;7.956;2023-05-20T07:48:17;102643.63;;;14.67;56.83
64298;BME280;50639;53.270;7.956;2023-05-20T07:50:43;102642.22;;;14.79;56.59
64298;BME280;50639;53.270;7.956;2023-05-20T07:53:09;102646.44;;;14.82;57.21
64298;BME280;50639;53.270;7.956;2023-05-20T07:55:35;102647.22;;;14.98;56.69
64298;BME280;50639;53.270;7.956;2023-05-20T07:58:04;102644.47;;;15.06;57.01
64298;BME280;50639;53.270;7.956;2023-05-20T08:00:32;102645.78;;;15.19;56.77
64298;BME280;50639;53.270;7.956;2023-05-20T08:03:02;102643.03;;;15.27;56.33
64298;BME280;50639;53.270;7.956;2023-05-20T08:05:36;102642.16;;;15.34;55.75
64298;BME280;50639;53.270;7.956;2023-05-20T08:08:04;102649.88;;;15.37;54.29
64298;BME280;50639;53.270;7.956;2023-05-20T08:10:39;102639.91;;;15.46;55.11
64298;BME280;50639;53.270;7.956;2023-05-20T08:13:05;102641.88;;;15.52;55.37
64298;BME280;50639;53.270;7.956;2023-05-20T08:15:31;102643.81;;;15.66;55.18
64298;BME280;50639;53.270;7.956;2023-05-20T08:17:57;102640.84;;;15.61;55.07
64298;BME280;50639;53.270;7.956;2023-05-20T08:20:22;102641.06;;;15.74;55.25
64298;BME280;50639;53.270;7.956;2023-05-20T08:22:48;102636.66;;;15.82;55.28
64298;BME280;50639;53.270;7.956;2023-05-20T08:25:14;102633.72;;;15.91;54.20
64298;BME280;50639;53.270;7.956;2023-05-20T08:27:39;102629.25;;;15.98;54.06
64298;BME280;50639;53.270;7.956;2023-05-20T08:30:06;102627.16;;;16.08;54.27
64298;BME280;50639;53.270;7.956;2023-05-20T08:32:35;102628.94;;;16.16;55.00
64298;BME280;50639;53.270;7.956;2023-05-20T08:35:01;102627.66;;;16.27;52.95
64298;BME280;50639;53.270;7.956;2023-05-20T08:37:28;102630.63;;;16.32;52.66
64298;BME280;50639;53.270;7.956;2023-05-20T08:39:54;102622.13;;;16.20;53.09
64298;BME280;50639;53.270;7.956;2023-05-20T08:42:21;102621.97;;;16.36;53.77
64298;BME280;50639;53.270;7.956;2023-05-20T08:44:52;102619.22;;;16.44;53.10
64298;BME280;50639;53.270;7.956;2023-05-20T08:47:19;102615.00;;;16.56;53.50
64298;BME280;50639;53.270;7.956;2023-05-20T08:49:47;102618.03;;;16.62;53.65
64298;BME280;50639;53.270;7.956;2023-05-20T08:52:13;102614.00;;;16.72;52.81
64298;BME280;50639;53.270;7.956;2023-05-20T08:54:44;102603.44;;;16.71;53.03
64298;BME280;50639;53.270;7.956;2023-05-20T08:57:10;102603.50;;;16.77;51.76
64298;BME280;50639;53.270;7.956;2023-05-20T08:59:41;102604.44;;;16.84;53.42
64298;BME280;50639;53.270;7.956;2023-05-20T09:02:09;102596.69;;;16.96;52.48
64298;BME280;50639;53.270;7.956;2023-05-20T09:04:35;102589.94;;;17.07;52.77
64298;BME280;50639;53.270;7.956;2023-05-20T09:07:01;102589.19;;;17.13;51.11
64298;BME280;50639;53.270;7.956;2023-05-20T09:09:26;102592.94;;;17.12;49.79
64298;BME280;50639;53.270;7.956;2023-05-20T09:11:52;102594.53;;;17.27;51.01
64298;BME280;50639;53.270;7.956;2023-05-20T09:14:17;102589.22;;;17.34;51.71
64298;BME280;50639;53.270;7.956;2023-05-20T09:16:43;102585.88;;;17.53;49.46
64298;BME280;50639;53.270;7.956;2023-05-20T09:19:09;102571.88;;;17.64;48.88
64298;BME280;50639;53.270;7.956;2023-05-20T09:21:35;102583.78;;;17.70;48.15
64298;BME280;50639;53.270;7.956;2023-05-20T09:24:01;102578.19;;;17.72;47.81
64298;BME280;50639;53.270;7.956;2023-05-20T09:26:27;102583.06;;;17.83;46.99
64298;BME280;50639;53.270;7.956;2023-05-20T09:28:57;102581.25;;;17.90;47.00
64298;BME280;50639;53.270;7.956;2023-05-20T09:31:27;102581.56;;;18.01;46.53
64298;BME280;50639;53.270;7.956;2023-05-20T09:33:53;102584.75;;;18.12;45.71
64298;BME280;50639;53.270;7.956;2023-05-20T09:36:21;102577.75;;;18.24;46.95
64298;BME280;50639;53.270;7.956;2023-05-20T09:38:51;102575.19;;;18.16;45.09
64298;BME280;50639;53.270;7.956;2023-05-20T09:41:19;102576.84;;;18.10;45.48
64298;BME280;50639;53.270;7.956;2023-05-20T09:43:49;102560.44;;;18.18;46.38
64298;BME280;50639;53.270;7.956;2023-05-20T09:46:15;102558.84;;;18.30;43.86
64298;BME280;50639;53.270;7.956;2023-05-20T09:48:43;102560.19;;;18.48;45.05
64298;BME280;50639;53.270;7.956;2023-05-20T09:51:09;102556.59;;;18.68;45.65
64298;BME280;50639;53.270;7.956;2023-05-20T09:53:36;102560.19;;;18.82;45.06
64298;BME280;50639;53.270;7.956;2023-05-20T09:56:02;102552.28;;;18.81;43.04
64298;BME280;50639;53.270;7.956;2023-05-20T09:58:28;102551.91;;;18.90;43.19
64298;BME280;50639;53.270;7.956;2023-05-20T10:00:54;102560.59;;;18.86;42.97
64298;BME280;50639;53.270;7.956;2023-05-20T10:03:21;102559.22;;;19.03;43.22
64298;BME280;50639;53.270;7.956;2023-05-20T10:09:19;102539.66;;;19.14;42.75
64298;BME280;50639;53.270;7.956;2023-05-20T10:17:21;102541.34;;;19.22;43.96
64298;BME280;50639;53.270;7.956;2023-05-20T10:19:48;102530.50;;;19.15;42.93
64298;BME280;50639;53.270;7.956;2023-05-20T10:22:26;102527.53;;;19.10;43.04
64298;BME280;50639;53.270;7.956;2023-05-20T10:24:59;102534.69;;;19.24;42.14
64298;BME280;50639;53.270;7.956;2023-05-20T10:27:25;102514.25;;;19.15;42.68
64298;BME280;50639;53.270;7.956;2023-05-20T10:29:53;102520.28;;;19.17;43.01
64298;BME280;50639;53.270;7.956;2023-05-20T10:32:30;102511.53;;;19.28;43.63
64298;BME280;50639;53.270;7.956;2023-05-20T10:35:01;102507.00;;;19.48;43.55
64298;BME280;50639;53.270;7.956;2023-05-20T10:37:47;102502.41;;;19.42;42.11
64298;BME280;50639;53.270;7.956;2023-05-20T10:40:14;102506.75;;;19.17;42.74
64298;BME280;50639;53.270;7.956;2023-05-20T10:42:40;102498.16;;;19.00;43.04
64298;BME280;50639;53.270;7.956;2023-05-20T10:45:09;102498.13;;;18.94;42.93
64298;BME280;50639;53.270;7.956;2023-05-20T10:47:35;102498.16;;;19.00;42.57
64298;BME280;50639;53.270;7.956;2023-05-20T10:50:02;102498.19;;;19.07;40.49
64298;BME280;50639;53.270;7.956;2023-05-20T10:52:36;102486.16;;;19.56;40.14
64298;BME280;50639;53.270;7.956;2023-05-20T10:55:02;102487.78;;;19.89;40.05
64298;BME280;50639;53.270;7.956;2023-05-20T10:57:29;102478.09;;;20.20;39.41
64298;BME280;50639;53.270;7.956;2023-05-20T10:59:55;102471.84;;;20.19;39.54
64298;BME280;50639;53.270;7.956;2023-05-20T11:02:21;102472.47;;;20.15;39.57
64298;BME280;50639;53.270;7.956;2023-05-20T11:04:55;102473.44;;;20.34;38.50
64298;BME280;50639;53.270;7.956;2023-05-20T11:07:30;102469.91;;;20.46;38.70
64298;BME280;50639;53.270;7.956;2023-05-20T11:09:57;102461.88;;;20.64;38.22
64298;BME280;50639;53.270;7.956;2023-05-20T11:12:24;102461.53;;;20.86;38.99
64298;BME280;50639;53.270;7.956;2023-05-20T11:14:50;102452.63;;;21.03;36.79
64298;BME280;50639;53.270;7.956;2023-05-20T11:17:17;102449.09;;;21.34;36.06
64298;BME280;50639;53.270;7.956;2023-05-20T11:19:43;102442.69;;;21.47;35.54
64298;BME280;50639;53.270;7.956;2023-05-20T11:22:09;102435.84;;;21.63;34.51
64298;BME280;50639;53.270;7.956;2023-05-20T11:24:35;102448.63;;;21.62;35.69
64298;BME280;50639;53.270;7.956;2023-05-20T11:27:01;102446.75;;;21.81;36.10
64298;BME280;50639;53.270;7.956;2023-05-20T11:29:27;102436.78;;;21.93;35.41
64298;BME280;50639;53.270;7.956;2023-05-20T11:31:57;102435.06;;;21.81;33.70
64298;BME280;50639;53.270;7.956;2023-05-20T11:34:23;102438.34;;;21.64;35.81
64298;BME280;50639;53.270;7.956;2023-05-20T11:36:57;102434.44;;;21.35;34.84
64298;BME280;50639;53.270;7.956;2023-05-20T11:39:23;102444.03;;;21.07;36.39
64298;BME280;50639;53.270;7.956;2023-05-20T11:41:49;102434.19;;;20.43;36.45
64298;BME280;50639;53.270;7.956;2023-05-20T11:44:15;102441.16;;;20.70;37.44
64298;BME280;50639;53.270;7.956;2023-05-20T11:46:45;102430.41;;;21.13;38.36
64298;BME280;50639;53.270;7.956;2023-05-20T11:49:12;102428.59;;;21.32;36.81
64298;BME280;50639;53.270;7.956;2023-05-20T11:51:38;102426.31;;;21.29;35.60
64298;BME280;50639;53.270;7.956;2023-05-20T11:54:06;102428.50;;;21.14;36.35
64298;BME280;50639;53.270;7.956;2023-05-20T11:56:33;102429.34;;;21.14;36.40
64298;BME280;50639;53.270;7.956;2023-05-20T11:59:03;102434.59;;;21.40;38.15
64298;BME280;50639;53.270;7.956;2023-05-20T12:01:31;102419.31;;;21.15;36.84
64298;BME280;50639;53.270;7.956;2023-05-20T12:03:58;102433.63;;;20.72;36.91
64298;BME280;50639;53.270;7.956;2023-05-20T12:06:24;102436.91;;;20.81;37.93
64298;BME280;50639;53.270;7.956;2023-05-20T12:08:49;102431.13;;;20.71;37.35
64298;BME280;50639;53.270;7.956;2023-05-20T12:11:15;102427.09;;;20.42;37.38
64298;BME280;50639;53.270;7.956;2023-05-20T12:13:41;102421.19;;;20.58;37.58
64298;BME280;50639;53.270;7.956;2023-05-20T12:16:06;102412.44;;;21.12;38.02
64298;BME280;50639;53.270;7.956;2023-05-20T12:18:32;102409.56;;;21.32;36.31
64298;BME280;50639;53.270;7.956;2023-05-20T12:20:58;102406.41;;;21.35;36.00
64298;BME280;50639;53.270;7.956;2023-05-20T12:23:24;102411.78;;;21.42;35.60
64298;BME280;50639;53.270;7.956;2023-05-20T12:25:49;102408.91;;;21.80;36.18
64298;BME280;50639;53.270;7.956;2023-05-20T12:28:15;102397.97;;;22.04;36.16
64298;BME280;50639;53.270;7.956;2023-05-20T12:30:42;102406.00;;;21.93;36.37
64298;BME280;50639;53.270;7.956;2023-05-20T12:33:08;102401.50;;;21.87;35.23
64298;BME280;50639;53.270;7.956;2023-05-20T12:35:42;102397.69;;;21.51;35.34
64298;BME280;50639;53.270;7.956;2023-05-20T12:38:08;102400.00;;;21.48;35.19
64298;BME280;50639;53.270;7.956;2023-05-20T12:40:35;102402.38;;;21.44;35.27
64298;BME280;50639;53.270;7.956;2023-05-20T12:43:01;102407.19;;;21.42;36.63
64298;BME280;50639;53.270;7.956;2023-05-20T12:45:27;102394.81;;;21.64;36.98
64298;BME280;50639;53.270;7.956;2023-05-20T12:47:53;102394.53;;;21.54;36.36
64298;BME280;50639;53.270;7.956;2023-05-20T12:50:19;102394.28;;;21.56;36.63
64298;BME280;50639;53.270;7.956;2023-05-20T12:52:45;102391.78;;;21.36;37.09
64298;BME280;50639;53.270;7.956;2023-05-20T12:55:11;102389.34;;;21.28;36.60
64298;BME280;50639;53.270;7.956;2023-05-20T12:57:40;102384.41;;;21.18;37.44